sensor_id;sensor_type;location;lat;lon;timestamp;P1;durP1;ratioP1;P2;durP2;ratioP2
60919;SDS011;59039;52.108;19.942;2024-03-23T00:54:21;51.60;;;23.80;;
60919;SDS011;59039;52.108;19.942;2024-03-23T00:56:46;63.10;;;27.70;;
60919;SDS011;59039;52.108;19.942;2024-03-23T00:59:11;58.30;;;26.70;;
60919;SDS011;59039;52.108;19.942;2024-03-23T01:01:36;55.20;;;24.40;;
60919;SDS011;59039;52.108;19.942;2024-03-23T01:04:02;49.40;;;22.60;;
60919;SDS011;59039;52.108;19.942;2024-03-23T01:06:27;49.40;;;24.10;;
60919;SDS011;59039;52.108;19.942;2024-03-23T01:08:53;57.70;;;25.50;;
60919;SDS011;59039;52.108;19.942;2024-03-23T01:11:18;45.60;;;23.40;;
60919;SDS011;59039;52.108;19.942;2024-03-23T01:13:43;53.70;;;25.00;;
60919;SDS011;59039;52.108;19.942;2024-03-23T01:16:08;62.10;;;26.80;;
60919;SDS011;59039;52.108;19.942;2024-03-23T01:18:33;62.70;;;27.60;;
60919;SDS011;59039;52.108;19.942;2024-03-23T01:20:58;60.00;;;26.50;;
60919;SDS011;59039;52.108;19.942;2024-03-23T01:23:23;53.40;;;23.60;;
60919;SDS011;59039;52.108;19.942;2024-03-23T01:25:55;53.30;;;23.50;;
60919;SDS011;59039;52.108;19.942;2024-03-23T01:28:20;55.80;;;25.50;;
60919;SDS011;59039;52.108;19.942;2024-03-23T01:30:46;51.70;;;24.30;;
60919;SDS011;59039;52.108;19.942;2024-03-23T01:33:11;58.50;;;25.30;;
60919;SDS011;59039;52.108;19.942;2024-03-23T01:35:37;53.90;;;24.50;;
60919;SDS011;59039;52.108;19.942;2024-03-23T01:38:02;48.90;;;24.00;;
60919;SDS011;59039;52.108;19.942;2024-03-23T01:40:27;52.20;;;23.90;;
60919;SDS011;59039;52.108;19.942;2024-03-23T01:42:55;49.90;;;23.70;;
60919;SDS011;59039;52.108;19.942;2024-03-23T01:45:26;48.70;;;22.30;;
60919;SDS011;59039;52.108;19.942;2024-03-23T01:47:52;53.40;;;24.90;;
60919;SDS011;59039;52.108;19.942;2024-03-23T01:50:17;49.30;;;21.90;;
60919;SDS011;59039;52.108;19.942;2024-03-23T01:52:42;47.80;;;22.20;;
60919;SDS011;59039;52.108;19.942;2024-03-23T01:55:08;54.30;;;24.80;;
60919;SDS011;59039;52.108;19.942;2024-03-23T01:57:33;50.30;;;23.40;;
60919;SDS011;59039;52.108;19.942;2024-03-23T01:59:58;50.40;;;22.60;;
60919;SDS011;59039;52.108;19.942;2024-03-23T02:02:23;50.50;;;23.00;;
60919;SDS011;59039;52.108;19.942;2024-03-23T02:04:49;55.10;;;25.10;;
60919;SDS011;59039;52.108;19.942;2024-03-23T02:07:14;57.60;;;26.00;;
60919;SDS011;59039;52.108;19.942;2024-03-23T02:09:39;54.60;;;26.70;;
60919;SDS011;59039;52.108;19.942;2024-03-23T02:12:04;55.50;;;25.50;;
60919;SDS011;59039;52.108;19.942;2024-03-23T02:14:30;49.10;;;24.00;;
60919;SDS011;59039;52.108;19.942;2024-03-23T02:16:55;51.70;;;25.10;;
60919;SDS011;59039;52.108;19.942;2024-03-23T02:19:20;56.30;;;24.20;;
60919;SDS011;59039;52.108;19.942;2024-03-23T02:21:45;56.20;;;23.30;;
60919;SDS011;59039;52.108;19.942;2024-03-23T02:24:11;47.20;;;23.60;;
60919;SDS011;59039;52.108;19.942;2024-03-23T02:26:36;50.50;;;23.60;;
60919;SDS011;59039;52.108;19.942;2024-03-23T02:29:01;51.30;;;24.70;;
60919;SDS011;59039;52.108;19.942;2024-03-23T02:31:26;51.40;;;24.40;;
60919;SDS011;59039;52.108;19.942;2024-03-23T02:33:51;49.70;;;24.90;;
60919;SDS011;59039;52.108;19.942;2024-03-23T02:36:16;47.20;;;23.60;;
60919;SDS011;59039;52.108;19.942;2024-03-23T02:38:42;51.10;;;23.70;;
60919;SDS011;59039;52.108;19.942;2024-03-23T02:41:07;48.40;;;23.60;;
60919;SDS011;59039;52.108;19.942;2024-03-23T02:43:32;51.60;;;23.90;;
60919;SDS011;59039;52.108;19.942;2024-03-23T02:45:57;46.70;;;24.00;;
60919;SDS011;59039;52.108;19.942;2024-03-23T02:48:22;54.60;;;25.10;;
60919;SDS011;59039;52.108;19.942;2024-03-23T02:50:47;46.80;;;23.10;;
60919;SDS011;59039;52.108;19.942;2024-03-23T02:53:13;46.60;;;23.60;;
60919;SDS011;59039;52.108;19.942;2024-03-23T02:55:38;50.50;;;24.30;;
60919;SDS011;59039;52.108;19.942;2024-03-23T02:58:03;52.30;;;24.50;;
60919;SDS011;59039;52.108;19.942;2024-03-23T03:00:28;51.90;;;25.30;;
60919;SDS011;59039;52.108;19.942;2024-03-23T03:02:54;50.40;;;23.80;;
60919;SDS011;59039;52.108;19.942;2024-03-23T03:05:19;53.30;;;26.60;;
60919;SDS011;59039;52.108;19.942;2024-03-23T03:07:44;54.00;;;26.70;;
60919;SDS011;59039;52.108;19.942;2024-03-23T03:10:10;49.00;;;25.30;;
60919;SDS011;59039;52.108;19.942;2024-03-23T03:12:35;53.90;;;25.50;;
60919;SDS011;59039;52.108;19.942;2024-03-23T03:15:00;57.00;;;26.20;;
60919;SDS011;59039;52.108;19.942;2024-03-23T03:17:25;51.20;;;24.80;;
60919;SDS011;59039;52.108;19.942;2024-03-23T03:19:50;46.30;;;23.40;;
60919;SDS011;59039;52.108;19.942;2024-03-23T03:22:15;49.80;;;23.70;;
60919;SDS011;59039;52.108;19.942;2024-03-23T03:24:41;50.10;;;24.80;;
60919;SDS011;59039;52.108;19.942;2024-03-23T03:27:06;51.00;;;24.00;;
60919;SDS011;59039;52.108;19.942;2024-03-23T03:29:31;53.40;;;25.20;;
60919;SDS011;59039;52.108;19.942;2024-03-23T03:31:56;47.80;;;24.10;;
60919;SDS011;59039;52.108;19.942;2024-03-23T03:34:21;45.90;;;23.80;;
60919;SDS011;59039;52.108;19.942;2024-03-23T03:36:46;47.80;;;25.00;;
60919;SDS011;59039;52.108;19.942;2024-03-23T03:39:12;52.80;;;25.80;;
60919;SDS011;59039;52.108;19.942;2024-03-23T03:41:37;53.50;;;26.70;;
60919;SDS011;59039;52.108;19.942;2024-03-23T03:44:02;48.40;;;24.60;;
60919;SDS011;59039;52.108;19.942;2024-03-23T03:46:30;52.90;;;26.30;;
60919;SDS011;59039;52.108;19.942;2024-03-23T03:48:55;49.20;;;25.10;;
60919;SDS011;59039;52.108;19.942;2024-03-23T03:51:20;47.60;;;24.50;;
60919;SDS011;59039;52.108;19.942;2024-03-23T03:53:46;53.60;;;26.40;;
60919;SDS011;59039;52.108;19.942;2024-03-23T03:56:11;51.80;;;26.40;;
60919;SDS011;59039;52.108;19.942;2024-03-23T03:58:36;49.80;;;25.80;;
60919;SDS011;59039;52.108;19.942;2024-03-23T04:01:01;57.50;;;27.20;;
60919;SDS011;59039;52.108;19.942;2024-03-23T04:03:26;53.50;;;27.80;;
60919;SDS011;59039;52.108;19.942;2024-03-23T04:05:52;55.40;;;25.80;;
60919;SDS011;59039;52.108;19.942;2024-03-23T04:08:18;52.20;;;24.00;;
60919;SDS011;59039;52.108;19.942;2024-03-23T04:10:43;51.30;;;26.40;;
60919;SDS011;59039;52.108;19.942;2024-03-23T04:13:08;48.10;;;24.80;;
60919;SDS011;59039;52.108;19.942;2024-03-23T04:15:34;52.00;;;25.90;;
60919;SDS011;59039;52.108;19.942;2024-03-23T04:17:59;52.40;;;26.50;;
60919;SDS011;59039;52.108;19.942;2024-03-23T04:20:24;58.00;;;26.40;;
60919;SDS011;59039;52.108;19.942;2024-03-23T04:22:49;51.50;;;25.60;;
60919;SDS011;59039;52.108;19.942;2024-03-23T04:25:14;52.70;;;25.90;;
60919;SDS011;59039;52.108;19.942;2024-03-23T04:27:39;51.20;;;26.10;;
60919;SDS011;59039;52.108;19.942;2024-03-23T04:30:05;52.50;;;26.10;;
60919;SDS011;59039;52.108;19.942;2024-03-23T04:32:31;55.70;;;29.40;;
60919;SDS011;59039;52.108;19.942;2024-03-23T04:34:56;57.20;;;28.60;;
60919;SDS011;59039;52.108;19.942;2024-03-23T04:37:21;50.50;;;27.20;;
60919;SDS011;59039;52.108;19.942;2024-03-23T04:39:47;55.20;;;28.30;;
60919;SDS011;59039;52.108;19.942;2024-03-23T04:42:14;48.80;;;26.60;;
60919;SDS011;59039;52.108;19.942;2024-03-23T04:44:39;48.20;;;26.40;;
60919;SDS011;59039;52.108;19.942;2024-03-23T04:47:05;52.60;;;27.70;;
60919;SDS011;59039;52.108;19.942;2024-03-23T04:49:30;47.20;;;25.10;;
60919;SDS011;59039;52.108;19.942;2024-03-23T04:51:55;53.50;;;27.10;;
60919;SDS011;59039;52.108;19.942;2024-03-23T04:54:20;50.40;;;26.90;;
60919;SDS011;59039;52.108;19.942;2024-03-23T04:56:45;56.50;;;27.80;;
60919;SDS011;59039;52.108;19.942;2024-03-23T04:59:10;51.60;;;26.70;;
60919;SDS011;59039;52.108;19.942;2024-03-23T05:01:36;49.10;;;25.60;;
60919;SDS011;59039;52.108;19.942;2024-03-23T05:04:01;55.50;;;28.20;;
60919;SDS011;59039;52.108;19.942;2024-03-23T05:06:26;52.20;;;26.90;;
60919;SDS011;59039;52.108;19.942;2024-03-23T05:08:51;53.00;;;28.60;;
60919;SDS011;59039;52.108;19.942;2024-03-23T05:11:17;47.60;;;25.70;;
60919;SDS011;59039;52.108;19.942;2024-03-23T05:13:42;48.20;;;26.20;;
60919;SDS011;59039;52.108;19.942;2024-03-23T05:16:08;52.50;;;25.50;;
60919;SDS011;59039;52.108;19.942;2024-03-23T05:18:33;48.90;;;26.00;;
60919;SDS011;59039;52.108;19.942;2024-03-23T05:20:59;47.30;;;24.70;;
60919;SDS011;59039;52.108;19.942;2024-03-23T05:23:25;49.90;;;26.50;;
60919;SDS011;59039;52.108;19.942;2024-03-23T05:25:51;48.50;;;25.40;;
60919;SDS011;59039;52.108;19.942;2024-03-23T05:28:16;53.40;;;25.80;;
60919;SDS011;59039;52.108;19.942;2024-03-23T05:30:41;46.60;;;25.10;;
60919;SDS011;59039;52.108;19.942;2024-03-23T05:33:06;49.80;;;25.70;;
60919;SDS011;59039;52.108;19.942;2024-03-23T05:35:31;49.80;;;25.50;;
60919;SDS011;59039;52.108;19.942;2024-03-23T05:37:57;49.00;;;26.40;;
60919;SDS011;59039;52.108;19.942;2024-03-23T05:40:22;46.70;;;25.10;;
60919;SDS011;59039;52.108;19.942;2024-03-23T05:42:47;48.10;;;25.00;;
60919;SDS011;59039;52.108;19.942;2024-03-23T05:45:13;49.40;;;26.60;;
60919;SDS011;59039;52.108;19.942;2024-03-23T05:47:38;48.80;;;26.20;;
60919;SDS011;59039;52.108;19.942;2024-03-23T05:50:03;44.10;;;23.60;;
60919;SDS011;59039;52.108;19.942;2024-03-23T05:52:29;46.00;;;25.20;;
60919;SDS011;59039;52.108;19.942;2024-03-23T05:54:54;48.70;;;25.20;;
60919;SDS011;59039;52.108;19.942;2024-03-23T05:57:19;48.40;;;24.60;;
60919;SDS011;59039;52.108;19.942;2024-03-23T05:59:45;50.20;;;25.30;;
60919;SDS011;59039;52.108;19.942;2024-03-23T06:02:10;52.30;;;24.90;;
60919;SDS011;59039;52.108;19.942;2024-03-23T06:04:35;50.70;;;27.10;;
60919;SDS011;59039;52.108;19.942;2024-03-23T06:07:00;52.60;;;26.90;;
60919;SDS011;59039;52.108;19.942;2024-03-23T06:09:25;47.60;;;25.70;;
60919;SDS011;59039;52.108;19.942;2024-03-23T06:11:51;58.60;;;28.60;;
60919;SDS011;59039;52.108;19.942;2024-03-23T06:14:16;53.10;;;26.90;;
60919;SDS011;59039;52.108;19.942;2024-03-23T06:16:41;56.00;;;27.40;;
60919;SDS011;59039;52.108;19.942;2024-03-23T06:19:06;49.60;;;26.00;;
60919;SDS011;59039;52.108;19.942;2024-03-23T06:21:31;57.40;;;28.40;;
60919;SDS011;59039;52.108;19.942;2024-03-23T06:23:56;56.80;;;30.20;;
60919;SDS011;59039;52.108;19.942;2024-03-23T06:26:22;59.50;;;31.20;;
60919;SDS011;59039;52.108;19.942;2024-03-23T06:28:47;58.30;;;31.10;;
60919;SDS011;59039;52.108;19.942;2024-03-23T06:31:12;54.50;;;28.00;;
60919;SDS011;59039;52.108;19.942;2024-03-23T06:33:38;50.50;;;27.80;;
60919;SDS011;59039;52.108;19.942;2024-03-23T06:36:04;50.20;;;25.70;;
60919;SDS011;59039;52.108;19.942;2024-03-23T06:38:30;45.80;;;24.20;;
60919;SDS011;59039;52.108;19.942;2024-03-23T06:40:55;56.80;;;30.90;;
60919;SDS011;59039;52.108;19.942;2024-03-23T06:43:20;63.50;;;33.70;;
60919;SDS011;59039;52.108;19.942;2024-03-23T06:45:52;83.10;;;42.60;;
60919;SDS011;59039;52.108;19.942;2024-03-23T06:48:18;96.70;;;50.30;;
60919;SDS011;59039;52.108;19.942;2024-03-23T06:50:43;98.30;;;55.10;;
60919;SDS011;59039;52.108;19.942;2024-03-23T06:53:08;111.80;;;55.90;;
60919;SDS011;59039;52.108;19.942;2024-03-23T06:55:33;107.90;;;58.30;;
60919;SDS011;59039;52.108;19.942;2024-03-23T06:57:59;101.20;;;51.60;;
60919;SDS011;59039;52.108;19.942;2024-03-23T07:00:24;106.80;;;52.60;;
60919;SDS011;59039;52.108;19.942;2024-03-23T07:02:49;105.10;;;48.90;;
60919;SDS011;59039;52.108;19.942;2024-03-23T07:05:14;85.30;;;46.30;;
60919;SDS011;59039;52.108;19.942;2024-03-23T07:07:39;77.90;;;43.60;;
60919;SDS011;59039;52.108;19.942;2024-03-23T07:10:05;70.90;;;38.10;;
60919;SDS011;59039;52.108;19.942;2024-03-23T07:12:31;64.40;;;33.80;;
60919;SDS011;59039;52.108;19.942;2024-03-23T07:14:56;62.70;;;30.90;;
60919;SDS011;59039;52.108;19.942;2024-03-23T07:17:21;50.10;;;28.80;;
60919;SDS011;59039;52.108;19.942;2024-03-23T07:19:46;46.80;;;26.20;;
60919;SDS011;59039;52.108;19.942;2024-03-23T07:22:12;41.30;;;24.90;;
60919;SDS011;59039;52.108;19.942;2024-03-23T07:24:37;44.50;;;25.40;;
60919;SDS011;59039;52.108;19.942;2024-03-23T07:27:03;47.80;;;23.70;;
60919;SDS011;59039;52.108;19.942;2024-03-23T07:29:29;35.80;;;19.80;;
60919;SDS011;59039;52.108;19.942;2024-03-23T07:31:54;46.70;;;24.10;;
60919;SDS011;59039;52.108;19.942;2024-03-23T07:34:19;70.30;;;31.70;;
60919;SDS011;59039;52.108;19.942;2024-03-23T07:36:44;68.30;;;32.50;;
60919;SDS011;59039;52.108;19.942;2024-03-23T07:39:09;61.30;;;30.40;;
60919;SDS011;59039;52.108;19.942;2024-03-23T07:41:34;47.80;;;24.00;;
60919;SDS011;59039;52.108;19.942;2024-03-23T07:43:59;47.30;;;26.90;;
60919;SDS011;59039;52.108;19.942;2024-03-23T07:46:25;40.60;;;21.70;;
60919;SDS011;59039;52.108;19.942;2024-03-23T07:48:50;35.80;;;20.30;;
60919;SDS011;59039;52.108;19.942;2024-03-23T07:53:42;49.50;;;23.30;;
60919;SDS011;59039;52.108;19.942;2024-03-23T07:56:09;39.60;;;24.50;;
60919;SDS011;59039;52.108;19.942;2024-03-23T07:58:34;35.10;;;20.30;;
60919;SDS011;59039;52.108;19.942;2024-03-23T08:01:03;31.00;;;17.50;;
60919;SDS011;59039;52.108;19.942;2024-03-23T08:03:30;31.50;;;17.10;;
60919;SDS011;59039;52.108;19.942;2024-03-23T08:05:56;34.00;;;16.60;;
60919;SDS011;59039;52.108;19.942;2024-03-23T08:08:21;30.00;;;15.70;;
60919;SDS011;59039;52.108;19.942;2024-03-23T08:10:47;31.80;;;17.10;;
60919;SDS011;59039;52.108;19.942;2024-03-23T08:13:15;32.30;;;16.50;;
60919;SDS011;59039;52.108;19.942;2024-03-23T08:15:41;28.50;;;15.80;;
60919;SDS011;59039;52.108;19.942;2024-03-23T08:18:06;29.10;;;15.60;;
60919;SDS011;59039;52.108;19.942;2024-03-23T08:20:32;32.50;;;17.40;;
60919;SDS011;59039;52.108;19.942;2024-03-23T08:22:57;28.00;;;15.70;;
60919;SDS011;59039;52.108;19.942;2024-03-23T08:25:22;28.60;;;16.80;;
60919;SDS011;59039;52.108;19.942;2024-03-23T08:27:47;32.80;;;18.00;;
60919;SDS011;59039;52.108;19.942;2024-03-23T08:30:12;28.90;;;16.30;;
60919;SDS011;59039;52.108;19.942;2024-03-23T08:32:38;29.00;;;16.30;;
60919;SDS011;59039;52.108;19.942;2024-03-23T08:35:03;28.60;;;15.40;;
60919;SDS011;59039;52.108;19.942;2024-03-23T08:37:29;31.00;;;16.40;;
60919;SDS011;59039;52.108;19.942;2024-03-23T08:39:54;29.90;;;15.60;;
60919;SDS011;59039;52.108;19.942;2024-03-23T08:42:19;29.50;;;14.20;;
60919;SDS011;59039;52.108;19.942;2024-03-23T08:44:46;26.80;;;14.00;;
60919;SDS011;59039;52.108;19.942;2024-03-23T08:47:11;29.30;;;15.70;;
60919;SDS011;59039;52.108;19.942;2024-03-23T08:49:37;28.10;;;13.60;;
60919;SDS011;59039;52.108;19.942;2024-03-23T08:52:02;27.40;;;14.60;;
60919;SDS011;59039;52.108;19.942;2024-03-23T08:54:27;26.00;;;14.30;;
60919;SDS011;59039;52.108;19.942;2024-03-23T08:56:52;26.10;;;13.50;;
60919;SDS011;59039;52.108;19.942;2024-03-23T08:59:17;23.00;;;13.00;;
60919;SDS011;59039;52.108;19.942;2024-03-23T09:01:43;23.70;;;13.90;;
60919;SDS011;59039;52.108;19.942;2024-03-23T09:04:08;24.90;;;12.80;;
60919;SDS011;59039;52.108;19.942;2024-03-23T09:06:33;25.90;;;13.80;;
60919;SDS011;59039;52.108;19.942;2024-03-23T09:08:58;21.90;;;12.90;;
60919;SDS011;59039;52.108;19.942;2024-03-23T09:11:23;24.20;;;13.20;;
60919;SDS011;59039;52.108;19.942;2024-03-23T09:13:48;22.60;;;11.80;;
60919;SDS011;59039;52.108;19.942;2024-03-23T09:16:13;18.30;;;11.90;;
60919;SDS011;59039;52.108;19.942;2024-03-23T09:18:39;23.20;;;11.70;;
60919;SDS011;59039;52.108;19.942;2024-03-23T09:21:04;23.20;;;11.80;;
60919;SDS011;59039;52.108;19.942;2024-03-23T09:23:36;23.20;;;12.70;;
60919;SDS011;59039;52.108;19.942;2024-03-23T09:26:04;27.10;;;12.90;;
60919;SDS011;59039;52.108;19.942;2024-03-23T09:28:29;26.90;;;14.00;;
60919;SDS011;59039;52.108;19.942;2024-03-23T09:30:55;31.40;;;15.50;;
60919;SDS011;59039;52.108;19.942;2024-03-23T09:33:20;26.20;;;12.70;;
60919;SDS011;59039;52.108;19.942;2024-03-23T09:35:45;21.30;;;11.20;;
60919;SDS011;59039;52.108;19.942;2024-03-23T09:38:10;19.70;;;11.20;;
60919;SDS011;59039;52.108;19.942;2024-03-23T09:40:42;22.50;;;12.20;;
60919;SDS011;59039;52.108;19.942;2024-03-23T09:43:07;19.40;;;11.00;;
60919;SDS011;59039;52.108;19.942;2024-03-23T09:45:36;17.60;;;10.60;;
60919;SDS011;59039;52.108;19.942;2024-03-23T09:48:04;19.10;;;10.60;;
60919;SDS011;59039;52.108;19.942;2024-03-23T09:50:29;21.00;;;11.50;;
60919;SDS011;59039;52.108;19.942;2024-03-23T09:52:54;24.20;;;10.60;;
60919;SDS011;59039;52.108;19.942;2024-03-23T09:55:20;22.70;;;11.50;;
60919;SDS011;59039;52.108;19.942;2024-03-23T09:57:45;20.00;;;10.30;;
60919;SDS011;59039;52.108;19.942;2024-03-23T10:00:10;19.90;;;10.80;;
60919;SDS011;59039;52.108;19.942;2024-03-23T10:02:36;26.80;;;12.90;;
60919;SDS011;59039;52.108;19.942;2024-03-23T10:05:01;35.20;;;16.30;;
60919;SDS011;59039;52.108;19.942;2024-03-23T10:07:27;20.10;;;12.40;;
60919;SDS011;59039;52.108;19.942;2024-03-23T10:09:52;18.20;;;10.60;;
60919;SDS011;59039;52.108;19.942;2024-03-23T10:12:18;19.20;;;10.50;;
60919;SDS011;59039;52.108;19.942;2024-03-23T10:14:44;15.10;;;9.50;;
60919;SDS011;59039;52.108;19.942;2024-03-23T10:17:20;17.70;;;9.10;;
60919;SDS011;59039;52.108;19.942;2024-03-23T10:19:47;19.50;;;10.00;;
60919;SDS011;59039;52.108;19.942;2024-03-23T10:22:13;17.20;;;10.60;;
60919;SDS011;59039;52.108;19.942;2024-03-23T10:24:39;20.20;;;10.10;;
60919;SDS011;59039;52.108;19.942;2024-03-23T10:27:04;17.10;;;9.90;;
60919;SDS011;59039;52.108;19.942;2024-03-23T10:29:30;15.90;;;10.00;;
60919;SDS011;59039;52.108;19.942;2024-03-23T10:32:06;18.70;;;11.20;;
60919;SDS011;59039;52.108;19.942;2024-03-23T10:34:33;16.40;;;9.60;;
60919;SDS011;59039;52.108;19.942;2024-03-23T10:36:58;16.80;;;9.80;;
60919;SDS011;59039;52.108;19.942;2024-03-23T10:39:27;17.00;;;9.10;;
60919;SDS011;59039;52.108;19.942;2024-03-23T10:41:52;20.70;;;10.60;;
60919;SDS011;59039;52.108;19.942;2024-03-23T10:44:18;15.80;;;10.30;;
60919;SDS011;59039;52.108;19.942;2024-03-23T10:46:44;17.80;;;10.30;;
60919;SDS011;59039;52.108;19.942;2024-03-23T10:49:10;18.80;;;10.30;;
60919;SDS011;59039;52.108;19.942;2024-03-23T10:51:35;16.80;;;10.10;;
60919;SDS011;59039;52.108;19.942;2024-03-23T10:54:02;20.00;;;12.00;;
60919;SDS011;59039;52.108;19.942;2024-03-23T10:56:29;15.40;;;10.00;;
60919;SDS011;59039;52.108;19.942;2024-03-23T10:58:57;17.40;;;10.50;;
60919;SDS011;59039;52.108;19.942;2024-03-23T11:01:22;18.10;;;10.80;;
60919;SDS011;59039;52.108;19.942;2024-03-23T11:03:47;15.80;;;10.80;;
60919;SDS011;59039;52.108;19.942;2024-03-23T11:09:03;15.40;;;10.30;;
60919;SDS011;59039;52.108;19.942;2024-03-23T11:11:28;14.70;;;9.70;;
60919;SDS011;59039;52.108;19.942;2024-03-23T11:13:54;17.90;;;10.70;;
60919;SDS011;59039;52.108;19.942;2024-03-23T11:16:26;19.80;;;11.70;;
60919;SDS011;59039;52.108;19.942;2024-03-23T11:18:53;20.40;;;12.40;;
60919;SDS011;59039;52.108;19.942;2024-03-23T11:22:04;18.80;;;11.50;;
60919;SDS011;59039;52.108;19.942;2024-03-23T11:24:17;19.60;;;11.90;;
60919;SDS011;59039;52.108;19.942;2024-03-23T11:26:42;18.90;;;11.50;;
60919;SDS011;59039;52.108;19.942;2024-03-23T11:29:10;16.00;;;11.40;;
60919;SDS011;59039;52.108;19.942;2024-03-23T11:31:37;16.80;;;10.30;;
60919;SDS011;59039;52.108;19.942;2024-03-23T11:34:06;19.10;;;11.50;;
60919;SDS011;59039;52.108;19.942;2024-03-23T11:36:31;18.10;;;10.30;;
60919;SDS011;59039;52.108;19.942;2024-03-23T11:38:57;18.10;;;10.30;;
60919;SDS011;59039;52.108;19.942;2024-03-23T11:41:22;17.40;;;9.80;;
60919;SDS011;59039;52.108;19.942;2024-03-23T11:43:47;15.80;;;10.40;;
60919;SDS011;59039;52.108;19.942;2024-03-23T11:46:21;18.80;;;10.70;;
60919;SDS011;59039;52.108;19.942;2024-03-23T11:48:50;17.10;;;10.40;;
60919;SDS011;59039;52.108;19.942;2024-03-23T11:51:15;19.80;;;11.30;;
60919;SDS011;59039;52.108;19.942;2024-03-23T11:53:42;24.90;;;13.00;;
60919;SDS011;59039;52.108;19.942;2024-03-23T11:56:07;22.50;;;12.10;;
60919;SDS011;59039;52.108;19.942;2024-03-23T11:58:34;16.00;;;10.40;;
60919;SDS011;59039;52.108;19.942;2024-03-23T12:01:03;16.70;;;11.00;;
60919;SDS011;59039;52.108;19.942;2024-03-23T12:03:28;16.80;;;10.70;;
60919;SDS011;59039;52.108;19.942;2024-03-23T12:05:55;17.90;;;11.10;;
60919;SDS011;59039;52.108;19.942;2024-03-23T12:08:23;17.30;;;10.10;;
60919;SDS011;59039;52.108;19.942;2024-03-23T12:11:05;17.80;;;10.50;;
60919;SDS011;59039;52.108;19.942;2024-03-23T12:13:33;17.30;;;10.00;;
60919;SDS011;59039;52.108;19.942;2024-03-23T12:16:12;18.20;;;10.70;;
60919;SDS011;59039;52.108;19.942;2024-03-23T12:18:39;22.20;;;12.60;;
60919;SDS011;59039;52.108;19.942;2024-03-23T12:21:06;17.40;;;10.90;;
60919;SDS011;59039;52.108;19.942;2024-03-23T12:23:31;15.00;;;10.70;;
60919;SDS011;59039;52.108;19.942;2024-03-23T12:25:56;18.20;;;11.30;;
60919;SDS011;59039;52.108;19.942;2024-03-23T12:28:21;19.70;;;11.90;;
60919;SDS011;59039;52.108;19.942;2024-03-23T12:30:46;21.20;;;11.20;;
60919;SDS011;59039;52.108;19.942;2024-03-23T12:33:11;19.90;;;11.50;;
60919;SDS011;59039;52.108;19.942;2024-03-23T12:35:37;24.50;;;15.00;;
60919;SDS011;59039;52.108;19.942;2024-03-23T12:38:02;22.40;;;13.80;;
60919;SDS011;59039;52.108;19.942;2024-03-23T12:40:27;21.30;;;13.90;;
60919;SDS011;59039;52.108;19.942;2024-03-23T12:42:52;31.70;;;16.20;;
60919;SDS011;59039;52.108;19.942;2024-03-23T12:45:17;40.20;;;18.50;;
60919;SDS011;59039;52.108;19.942;2024-03-23T12:47:43;41.90;;;18.40;;
60919;SDS011;59039;52.108;19.942;2024-03-23T12:50:08;37.10;;;19.00;;
60919;SDS011;59039;52.108;19.942;2024-03-23T12:52:33;42.80;;;19.90;;
60919;SDS011;59039;52.108;19.942;2024-03-23T12:54:59;34.90;;;18.30;;
60919;SDS011;59039;52.108;19.942;2024-03-23T12:57:24;29.10;;;15.90;;
60919;SDS011;59039;52.108;19.942;2024-03-23T12:59:51;33.30;;;17.10;;
60919;SDS011;59039;52.108;19.942;2024-03-23T13:02:17;65.00;;;28.20;;
60919;SDS011;59039;52.108;19.942;2024-03-23T13:04:46;43.00;;;21.60;;
60919;SDS011;59039;52.108;19.942;2024-03-23T13:07:14;33.80;;;22.00;;
60919;SDS011;59039;52.108;19.942;2024-03-23T13:09:39;21.10;;;13.00;;
60919;SDS011;59039;52.108;19.942;2024-03-23T13:12:05;20.10;;;12.90;;
60919;SDS011;59039;52.108;19.942;2024-03-23T13:14:30;20.50;;;14.10;;
60919;SDS011;59039;52.108;19.942;2024-03-23T13:16:55;22.30;;;15.40;;
60919;SDS011;59039;52.108;19.942;2024-03-23T13:19:21;22.50;;;13.50;;
60919;SDS011;59039;52.108;19.942;2024-03-23T13:21:46;26.50;;;14.20;;
60919;SDS011;59039;52.108;19.942;2024-03-23T13:24:11;25.40;;;15.00;;
60919;SDS011;59039;52.108;19.942;2024-03-23T13:26:36;34.10;;;17.40;;
60919;SDS011;59039;52.108;19.942;2024-03-23T13:29:01;31.40;;;15.40;;
60919;SDS011;59039;52.108;19.942;2024-03-23T13:31:26;23.40;;;14.60;;
60919;SDS011;59039;52.108;19.942;2024-03-23T13:33:51;29.80;;;16.00;;
60919;SDS011;59039;52.108;19.942;2024-03-23T13:36:17;26.20;;;14.80;;
60919;SDS011;59039;52.108;19.942;2024-03-23T13:38:42;24.20;;;14.00;;
60919;SDS011;59039;52.108;19.942;2024-03-23T13:41:07;22.70;;;13.20;;
60919;SDS011;59039;52.108;19.942;2024-03-23T13:43:32;24.70;;;13.50;;
60919;SDS011;59039;52.108;19.942;2024-03-23T13:45:58;28.00;;;14.70;;
60919;SDS011;59039;52.108;19.942;2024-03-23T13:48:25;29.80;;;16.10;;
60919;SDS011;59039;52.108;19.942;2024-03-23T13:51:04;34.20;;;17.10;;
60919;SDS011;59039;52.108;19.942;2024-03-23T13:53:30;26.00;;;15.80;;
60919;SDS011;59039;52.108;19.942;2024-03-23T13:55:56;28.10;;;16.50;;
60919;SDS011;59039;52.108;19.942;2024-03-23T13:58:21;25.80;;;15.00;;
60919;SDS011;59039;52.108;19.942;2024-03-23T14:00:47;20.50;;;14.40;;
60919;SDS011;59039;52.108;19.942;2024-03-23T14:03:13;21.70;;;13.70;;
60919;SDS011;59039;52.108;19.942;2024-03-23T14:05:39;23.00;;;14.80;;
60919;SDS011;59039;52.108;19.942;2024-03-23T14:08:06;25.20;;;15.40;;
60919;SDS011;59039;52.108;19.942;2024-03-23T14:10:31;30.30;;;16.80;;
60919;SDS011;59039;52.108;19.942;2024-03-23T14:12:57;24.90;;;16.40;;
60919;SDS011;59039;52.108;19.942;2024-03-23T14:15:22;23.70;;;16.10;;
60919;SDS011;59039;52.108;19.942;2024-03-23T14:17:47;21.00;;;14.20;;
60919;SDS011;59039;52.108;19.942;2024-03-23T14:20:12;24.50;;;15.00;;
60919;SDS011;59039;52.108;19.942;2024-03-23T14:22:38;34.00;;;16.60;;
60919;SDS011;59039;52.108;19.942;2024-03-23T14:25:03;54.20;;;26.00;;
60919;SDS011;59039;52.108;19.942;2024-03-23T14:27:28;74.80;;;33.20;;
60919;SDS011;59039;52.108;19.942;2024-03-23T14:29:54;65.50;;;33.20;;
60919;SDS011;59039;52.108;19.942;2024-03-23T14:32:19;61.90;;;29.30;;
60919;SDS011;59039;52.108;19.942;2024-03-23T14:34:44;61.20;;;28.50;;
60919;SDS011;59039;52.108;19.942;2024-03-23T14:37:10;65.60;;;29.90;;
60919;SDS011;59039;52.108;19.942;2024-03-23T14:39:35;77.70;;;31.10;;
60919;SDS011;59039;52.108;19.942;2024-03-23T14:42:03;67.20;;;31.20;;
60919;SDS011;59039;52.108;19.942;2024-03-23T14:44:28;74.50;;;37.00;;
60919;SDS011;59039;52.108;19.942;2024-03-23T14:46:53;62.60;;;34.30;;
60919;SDS011;59039;52.108;19.942;2024-03-23T14:49:19;74.00;;;41.40;;
60919;SDS011;59039;52.108;19.942;2024-03-23T14:51:44;63.80;;;38.40;;
60919;SDS011;59039;52.108;19.942;2024-03-23T14:54:09;54.50;;;33.60;;
60919;SDS011;59039;52.108;19.942;2024-03-23T14:56:34;50.00;;;31.20;;
60919;SDS011;59039;52.108;19.942;2024-03-23T14:59:00;51.60;;;31.80;;